createdAt,value
2023-01-28T00:03:33.967Z,101275.38
2023-01-28T00:07:35.954Z,101270.22
2023-01-28T00:11:38.149Z,101271.94
2023-01-28T00:15:40.353Z,101275.34
2023-01-28T00:19:42.398Z,101282.28
2023-01-28T00:23:50.434Z,101288.28
2023-01-28T00:27:52.468Z,101278.00
2023-01-28T00:31:55.187Z,101278.84
2023-01-28T00:35:59.103Z,101280.47
2023-01-28T00:40:01.404Z,101274.50
2023-01-28T00:44:04.000Z,101270.13
2023-01-28T00:48:06.714Z,101283.00
2023-01-28T00:52:08.706Z,101278.69
2023-01-28T00:56:15.567Z,101274.34
2023-01-28T01:00:19.139Z,101268.28
2023-01-28T01:04:26.602Z,101272.66
2023-01-28T01:08:34.980Z,101277.78
2023-01-28T01:12:37.059Z,101276.84
2023-01-28T01:16:39.112Z,101264.78
2023-01-28T01:20:45.461Z,101282.03
2023-01-28T01:24:48.319Z,101276.00
2023-01-28T01:28:51.888Z,101269.06
2023-01-28T01:32:53.863Z,101263.03
2023-01-28T01:36:55.813Z,101264.75
2023-01-28T01:40:59.878Z,101262.13
2023-01-28T01:45:12.264Z,101268.97
2023-01-28T01:49:20.801Z,101269.91
2023-01-28T01:53:24.509Z,101268.16
2023-01-28T01:57:30.927Z,101266.38
2023-01-28T02:01:33.018Z,101273.16
2023-01-28T02:05:35.157Z,101272.38
2023-01-28T02:09:38.484Z,101273.22
2023-01-28T02:13:48.886Z,101271.47
2023-01-28T02:17:52.181Z,101273.22
2023-01-28T02:22:31.944Z,101280.97
2023-01-28T02:26:58.814Z,101279.25
2023-01-28T02:31:14.313Z,101275.88
2023-01-28T02:35:35.510Z,101276.72
2023-01-28T02:39:45.453Z,101272.50
2023-01-28T02:43:47.463Z,101272.47
2023-01-28T02:47:58.468Z,101278.47
2023-01-28T02:52:18.760Z,101274.06
2023-01-28T02:56:20.856Z,101279.22
2023-01-28T03:00:40.848Z,101279.22
2023-01-28T03:05:20.524Z,101281.88
2023-01-28T03:09:26.816Z,101275.81
2023-01-28T03:13:48.154Z,101275.88
2023-01-28T03:18:19.246Z,101278.50
2023-01-28T03:22:43.020Z,101281.94
2023-01-28T03:27:16.647Z,101282.88
2023-01-28T03:31:42.128Z,101278.63
2023-01-28T03:36:03.498Z,101274.22
2023-01-28T03:40:07.657Z,101285.41
2023-01-28T03:44:28.200Z,101284.59
2023-01-28T03:48:30.494Z,101272.53
2023-01-28T03:52:33.502Z,101275.94
2023-01-28T03:56:58.627Z,101278.53
2023-01-28T04:01:00.540Z,101275.09
2023-01-28T04:05:06.909Z,101279.38
2023-01-28T04:09:10.933Z,101270.78
2023-01-28T04:13:24.505Z,101276.00
2023-01-28T04:17:26.936Z,101277.78
2023-01-28T04:21:29.175Z,101281.22
2023-01-28T04:25:32.024Z,101282.00
2023-01-28T04:29:34.630Z,101287.22
2023-01-28T04:34:06.499Z,101274.38
2023-01-28T04:38:34.672Z,101280.38
2023-01-28T04:42:56.089Z,101289.84
2023-01-28T04:47:07.877Z,101286.28
2023-01-28T04:51:19.131Z,101289.75
2023-01-28T04:55:32.325Z,101294.97
2023-01-28T04:59:35.833Z,101284.53
2023-01-28T05:03:37.925Z,101300.06
2023-01-28T05:07:41.728Z,101285.41
2023-01-28T05:11:43.696Z,101300.97
2023-01-28T05:15:51.184Z,101299.13
2023-01-28T05:19:54.096Z,101297.41
2023-01-28T05:23:59.738Z,101289.09
2023-01-28T05:28:01.848Z,101291.47
2023-01-28T05:32:04.368Z,101294.00
2023-01-28T05:36:06.882Z,101303.38
2023-01-28T05:40:09.635Z,101304.28
2023-01-28T05:44:12.518Z,101306.03
2023-01-28T05:48:30.550Z,101312.97
2023-01-28T05:52:44.661Z,101313.84
2023-01-28T05:56:59.035Z,101314.72
2023-01-28T06:01:01.144Z,101317.25
2023-01-28T06:05:11.483Z,101310.31
2023-01-28T06:09:14.523Z,101321.63
2023-01-28T06:13:16.711Z,101322.47
2023-01-28T06:17:39.111Z,101325.03
2023-01-28T06:21:43.549Z,101329.38
2023-01-28T06:25:46.431Z,101327.03
2023-01-28T06:29:50.680Z,101331.28
2023-01-28T06:33:52.655Z,101335.47
2023-01-28T06:37:54.658Z,101343.03
2023-01-28T06:41:56.529Z,101343.84
2023-01-28T06:45:58.907Z,101346.59
2023-01-28T06:50:00.904Z,101347.38
2023-01-28T06:54:03.018Z,101347.41
2023-01-28T06:58:04.915Z,101347.34
2023-01-28T07:02:07.208Z,101356.03
2023-01-28T07:06:09.372Z,101361.13
2023-01-28T07:10:11.435Z,101363.75
2023-01-28T07:14:13.374Z,101367.09
2023-01-28T07:18:15.351Z,101364.47
2023-01-28T07:22:17.347Z,101361.88
2023-01-28T07:26:20.118Z,101351.50
2023-01-28T07:30:22.225Z,101362.72
2023-01-28T07:34:24.964Z,101360.06
2023-01-28T07:38:26.919Z,101370.59
2023-01-28T07:42:28.886Z,101367.84
2023-01-28T07:46:30.906Z,101367.91
2023-01-28T07:50:35.549Z,101372.25
2023-01-28T07:54:37.502Z,101372.31
2023-01-28T07:58:39.548Z,101371.44
2023-01-28T08:02:41.524Z,101370.69
2023-01-28T08:06:43.560Z,101368.84
2023-01-28T08:10:46.220Z,101360.13
2023-01-28T08:14:48.420Z,101367.13
2023-01-28T08:18:50.319Z,101367.19
2023-01-28T08:22:52.389Z,101364.53
2023-01-28T08:26:54.424Z,101373.19
2023-01-28T08:31:00.554Z,101373.25
2023-01-28T08:35:03.117Z,101373.16
2023-01-28T08:39:06.026Z,101372.31
2023-01-28T08:43:07.967Z,101370.66
2023-01-28T08:47:09.948Z,101371.50
2023-01-28T08:51:11.951Z,101368.09
2023-01-28T08:55:14.080Z,101373.22
2023-01-28T08:59:16.105Z,101370.59
2023-01-28T09:03:18.636Z,101374.09
2023-01-28T09:07:20.262Z,101372.25
2023-01-28T09:11:22.247Z,101385.19
2023-01-28T09:15:24.691Z,101388.56
2023-01-28T09:19:26.666Z,101393.84
2023-01-28T09:23:28.568Z,101399.06
2023-01-28T09:27:30.624Z,101396.38
2023-01-28T09:31:32.987Z,101398.94
2023-01-28T09:35:35.497Z,101397.31
2023-01-28T09:39:38.458Z,101401.59
2023-01-28T09:44:00.308Z,101404.16
2023-01-28T09:48:04.917Z,101396.56
2023-01-28T09:52:14.309Z,101399.09
2023-01-28T09:56:28.886Z,101392.13
2023-01-28T10:00:51.480Z,101388.78
2023-01-28T10:05:12.109Z,101386.09
2023-01-28T10:09:35.533Z,101385.25
2023-01-28T10:13:58.902Z,101390.41
2023-01-28T10:18:16.980Z,101381.06
2023-01-28T10:22:24.036Z,101381.78
2023-01-28T10:26:33.082Z,101373.22
2023-01-28T10:30:38.130Z,101375.72
2023-01-28T10:34:40.379Z,101372.34
2023-01-28T10:38:42.657Z,101377.56
2023-01-28T10:42:45.267Z,101372.28
2023-01-28T10:46:49.197Z,101378.34
2023-01-28T10:50:57.103Z,101364.56
2023-01-28T10:55:00.557Z,101363.75
2023-01-28T10:59:05.352Z,101364.56
2023-01-28T11:03:18.271Z,101366.31
2023-01-28T11:07:21.721Z,101359.38
2023-01-28T11:11:28.415Z,101359.38
2023-01-28T11:15:30.980Z,101361.84
2023-01-28T11:19:36.853Z,101354.91
2023-01-28T11:23:49.641Z,101339.56
2023-01-28T11:27:53.670Z,101349.03
2023-01-28T11:31:56.268Z,101354.22
2023-01-28T11:36:08.290Z,101342.97
2023-01-28T11:40:21.028Z,101337.63
2023-01-28T11:44:26.465Z,101336.78
2023-01-28T11:48:44.939Z,101343.03
2023-01-28T11:53:06.756Z,101342.19
2023-01-28T11:57:18.492Z,101339.50
2023-01-28T12:01:40.381Z,101336.03
2023-01-28T12:05:50.023Z,101343.84
2023-01-28T12:09:58.570Z,101343.00
2023-01-28T12:14:19.520Z,101339.53
2023-01-28T12:18:30.929Z,101331.84
2023-01-28T12:23:03.004Z,101339.50
2023-01-28T12:27:24.451Z,101336.97
2023-01-28T12:31:54.810Z,101342.09
2023-01-28T12:36:07.213Z,101343.00
2023-01-28T12:40:38.529Z,101341.16
2023-01-28T12:44:47.712Z,101336.97
2023-01-28T12:49:00.106Z,101334.47
2023-01-28T12:53:27.664Z,101331.75
2023-01-28T12:57:32.912Z,101344.78
2023-01-28T13:01:58.120Z,101344.78
2023-01-28T13:06:10.136Z,101345.56
2023-01-28T13:10:29.046Z,101339.53
2023-01-28T13:14:32.890Z,101343.72
2023-01-28T13:18:40.984Z,101344.59
2023-01-28T13:22:45.872Z,101345.63
2023-01-28T13:26:57.246Z,101354.22
2023-01-28T13:31:17.467Z,101343.88
2023-01-28T13:35:32.306Z,101354.28
2023-01-28T13:39:36.421Z,101362.03
2023-01-28T13:43:41.558Z,101353.44
2023-01-28T13:47:47.837Z,101356.94
2023-01-28T13:52:01.887Z,101356.75
2023-01-28T13:56:10.234Z,101351.69
2023-01-28T14:00:33.304Z,101357.69
2023-01-28T14:04:56.953Z,101365.53
2023-01-28T14:09:31.392Z,101359.38
2023-01-28T14:14:12.571Z,101343.94
2023-01-28T14:18:45.318Z,101348.22
2023-01-28T14:22:48.915Z,101352.53
2023-01-28T14:27:28.144Z,101350.75
2023-01-28T14:31:37.465Z,101348.97
2023-01-28T14:35:45.966Z,101355.97
2023-01-28T14:39:52.858Z,101353.38
2023-01-28T14:43:56.453Z,101357.75
2023-01-28T14:48:19.824Z,101357.88
2023-01-28T14:52:41.897Z,101368.16
2023-01-28T14:56:58.864Z,101355.09
2023-01-28T15:01:01.205Z,101357.78
2023-01-28T15:05:21.016Z,101367.19
2023-01-28T15:09:23.584Z,101367.22
2023-01-28T15:13:29.490Z,101367.19
2023-01-28T15:17:31.582Z,101369.81
2023-01-28T15:21:35.760Z,101375.75
2023-01-28T15:25:37.916Z,101380.16
2023-01-28T15:29:39.973Z,101380.25
2023-01-28T15:33:41.848Z,101377.63
2023-01-28T15:37:43.627Z,101370.84
2023-01-28T15:41:52.013Z,101378.66
2023-01-28T15:45:56.053Z,101378.56
2023-01-28T15:50:01.449Z,101383.81
2023-01-28T15:54:06.806Z,101385.47
2023-01-28T15:58:30.110Z,101395.00
2023-01-28T16:02:32.515Z,101388.00
2023-01-28T16:06:41.766Z,101390.69
2023-01-28T16:10:52.492Z,101391.59
2023-01-28T16:14:57.919Z,101393.28
2023-01-28T16:19:02.650Z,101405.38
2023-01-28T16:23:22.702Z,101410.56
2023-01-28T16:27:27.366Z,101420.88
2023-01-28T16:31:29.417Z,101443.34
2023-01-28T16:35:47.730Z,101457.97
2023-01-28T16:39:53.535Z,101464.03
2023-01-28T16:43:55.629Z,101453.69
2023-01-28T16:47:58.356Z,101448.53
2023-01-28T16:52:02.127Z,101467.47
2023-01-28T16:56:04.464Z,101460.56
2023-01-28T17:00:07.170Z,101467.50
2023-01-28T17:04:12.079Z,101465.78
2023-01-28T17:08:14.596Z,101465.72
2023-01-28T17:12:16.716Z,101471.81
2023-01-28T17:16:18.801Z,101489.06
2023-01-28T17:20:21.317Z,101484.75
2023-01-28T17:24:23.286Z,101487.34
2023-01-28T17:28:25.218Z,101489.97
2023-01-28T17:32:27.308Z,101489.94
2023-01-28T17:36:29.299Z,101505.50
2023-01-28T17:40:32.030Z,101501.19
2023-01-28T17:44:33.951Z,101505.47
2023-01-28T17:48:35.838Z,101501.22
2023-01-28T17:52:37.973Z,101515.06
2023-01-28T17:56:39.965Z,101519.31
2023-01-28T18:00:41.898Z,101529.69
2023-01-28T18:04:43.747Z,101535.69
2023-01-28T18:08:45.815Z,101520.22
2023-01-28T18:12:48.047Z,101533.09
2023-01-28T18:16:50.018Z,101534.84
2023-01-28T18:21:00.300Z,101534.84
2023-01-28T18:25:02.278Z,101537.44
2023-01-28T18:29:04.264Z,101554.66
2023-01-28T18:33:06.423Z,101556.38
2023-01-28T18:37:10.039Z,101562.44
2023-01-28T18:41:12.123Z,101558.97
2023-01-28T18:45:14.494Z,101553.78
2023-01-28T18:49:16.818Z,101551.22
2023-01-28T18:53:19.500Z,101557.31
2023-01-28T18:57:21.451Z,101540.03
2023-01-28T19:01:23.492Z,101546.94
2023-01-28T19:05:25.531Z,101542.59
2023-01-28T19:09:27.922Z,101549.53
2023-01-28T19:13:29.548Z,101545.19
2023-01-28T19:17:31.527Z,101544.34
2023-01-28T19:21:34.170Z,101545.22
2023-01-28T19:25:36.168Z,101551.25
2023-01-28T19:29:38.128Z,101547.78
2023-01-28T19:33:40.185Z,101551.22
2023-01-28T19:37:42.164Z,101550.38
2023-01-28T19:41:44.985Z,101552.97
2023-01-28T19:45:57.790Z,101556.44
2023-01-28T19:49:59.922Z,101564.16
2023-01-28T19:54:01.940Z,101571.91
2023-01-28T19:58:03.952Z,101561.63
2023-01-28T20:02:06.228Z,101564.22
2023-01-28T20:06:12.254Z,101566.81
2023-01-28T20:10:14.263Z,101578.00
2023-01-28T20:14:18.058Z,101584.03
2023-01-28T20:18:20.051Z,101564.22
2023-01-28T20:22:22.030Z,101581.44
2023-01-28T20:26:27.365Z,101581.44
2023-01-28T20:30:29.406Z,101582.31
2023-01-28T20:34:31.406Z,101581.44
2023-01-28T20:38:41.016Z,101595.25
2023-01-28T20:42:42.962Z,101591.78
2023-01-28T20:46:44.985Z,101602.13
2023-01-28T20:50:47.010Z,101611.59
2023-01-28T20:54:49.087Z,101602.09
2023-01-28T20:59:02.404Z,101598.69
2023-01-28T21:03:04.423Z,101608.16
2023-01-28T21:07:09.300Z,101613.34
2023-01-28T21:11:12.339Z,101615.94
2023-01-28T21:15:14.389Z,101616.78
2023-01-28T21:19:16.580Z,101616.78
2023-01-28T21:23:18.574Z,101616.78
2023-01-28T21:27:20.736Z,101609.03
2023-01-28T21:31:25.582Z,101603.00
2023-01-28T21:35:27.573Z,101590.09
2023-01-28T21:39:29.596Z,101591.78
2023-01-28T21:43:32.147Z,101580.59
2023-01-28T21:47:34.133Z,101586.59
2023-01-28T21:51:36.609Z,101595.09
2023-01-28T21:55:38.609Z,101577.09
2023-01-28T21:59:41.240Z,101564.22
2023-01-28T22:03:43.200Z,101579.69
2023-01-28T22:07:44.862Z,101579.63
2023-01-28T22:11:46.820Z,101565.94
2023-01-28T22:15:48.822Z,101559.06
2023-01-28T22:19:50.768Z,101546.97
2023-01-28T22:23:52.769Z,101550.41
2023-01-28T22:27:54.756Z,101550.44
2023-01-28T22:31:56.806Z,101549.56
2023-01-28T22:35:58.821Z,101557.28
2023-01-28T22:40:00.807Z,101552.16
2023-01-28T22:44:03.760Z,101561.59
2023-01-28T22:48:05.982Z,101567.63
2023-01-28T22:52:07.976Z,101570.91
2023-01-28T22:56:10.083Z,101580.44
2023-01-28T23:00:15.280Z,101580.53
2023-01-28T23:04:17.544Z,101584.84
2023-01-28T23:08:19.515Z,101593.44
2023-01-28T23:12:21.565Z,101601.22
2023-01-28T23:16:42.137Z,101604.69
2023-01-28T23:21:02.584Z,101602.03
2023-01-28T23:25:05.676Z,101592.59
2023-01-28T23:29:07.385Z,101584.81
2023-01-28T23:33:10.123Z,101583.97
2023-01-28T23:37:13.364Z,101586.59
2023-01-28T23:41:15.404Z,101575.38
2023-01-28T23:45:18.567Z,101580.56
2023-01-28T23:49:20.663Z,101572.78
2023-01-28T23:53:22.733Z,101567.59
2023-01-28T23:57:24.737Z,101565.91
